This is the latest recevied weather packets stored in our database for station/object EGFF. If no packets are shown the sender has not sent any weather packets the latest 1 day(s).
| Time | Temp. | Humidity | Pressure | Rain* | Wind** | Luminosity | Snow |
|---|---|---|---|---|---|---|---|
| 1778099004 | 11.67° C | 54% | 1014 hPa | - | - | - | - |
| 1778097205 | 12.78° C | 54% | 1014 hPa | - | - | - | - |
| 1778096603 | 12.78° C | 54% | 1014 hPa | - | - | - | - |
| 1778093604 | 12.78° C | 50% | 1014 hPa | - | - | - | - |
| 1778088205 | 13.89° C | 47% | 1013 hPa | - | - | - | - |
| 1778087606 | 13.89° C | 47% | 1013 hPa | - | - | - | - |
| 1778079805 | 13.89° C | 47% | 1014 hPa | - | - | - | - |
| 1778078604 | 13.89° C | 50% | 1014 hPa | - | - | - | - |
| 1778076801 | 13.89° C | 47% | 1014 hPa | - | - | - | - |
| 1778075602 | 13.89° C | - | 1014 hPa | - | - | - | - |
| 1778074398 | 13.89° C | - | 1014 hPa | - | - | - | - |
| 1778071403 | 13.89° C | 50% | 1014 hPa | - | - | - | - |
| 1778070203 | 12.78° C | 54% | 1014 hPa | - | - | - | - |
| 1778069602 | 12.78° C | 54% | 1014 hPa | - | - | - | - |
| 1778068402 | 11.67° C | 58% | 1014 hPa | - | - | - | - |
| 1778067200 | 11.67° C | 58% | 1014 hPa | - | - | - | - |
| 1778066605 | 11.67° C | 54% | 1013 hPa | - | - | - | - |
| 1778066004 | 11.67° C | 54% | 1013 hPa | - | - | - | - |
| 1778065401 | 11.67° C | 54% | 1013 hPa | - | - | - | - |
| 1778064204 | 10.56° C | 57% | 1015 hPa | - | - | - | - |
| 1778063004 | 10° C | 61% | 1013 hPa | - | - | - | - |
| 1778060727 | 8.89° C | 66% | 1014 hPa | - | - | - | - |
| 1778060003 | 8.89° C | 66% | 1014 hPa | - | - | - | - |
| 1778059402 | 8.89° C | 66% | 1013 hPa | - | - | - | - |
| 1778058802 | 8.89° C | 66% | 1012 hPa | - | - | - | - |
* Rain since midnight (hover to see other rain measurements)
** Current wind speed in m/s (hover to see current wind gust speed)